sensor_id;sensor_type;location;lat;lon;timestamp;P1;durP1;ratioP1;P2;durP2;ratioP2
45490;SDS011;31237;45.586;13.782;2024-02-26T00:02:23;9.27;;;2.03;;
45490;SDS011;31237;45.586;13.782;2024-02-26T00:04:49;4.30;;;2.35;;
45490;SDS011;31237;45.586;13.782;2024-02-26T00:07:17;4.78;;;2.13;;
45490;SDS011;31237;45.586;13.782;2024-02-26T00:09:43;5.63;;;1.90;;
45490;SDS011;31237;45.586;13.782;2024-02-26T00:12:09;5.47;;;2.28;;
45490;SDS011;31237;45.586;13.782;2024-02-26T00:14:34;7.35;;;1.90;;
45490;SDS011;31237;45.586;13.782;2024-02-26T00:17:00;4.47;;;2.20;;
45490;SDS011;31237;45.586;13.782;2024-02-26T00:19:26;6.45;;;2.22;;
45490;SDS011;31237;45.586;13.782;2024-02-26T00:21:52;5.90;;;2.00;;
45490;SDS011;31237;45.586;13.782;2024-02-26T00:24:18;4.95;;;1.95;;
45490;SDS011;31237;45.586;13.782;2024-02-26T00:26:44;5.35;;;2.20;;
45490;SDS011;31237;45.586;13.782;2024-02-26T00:29:10;4.53;;;2.28;;
45490;SDS011;31237;45.586;13.782;2024-02-26T00:31:36;5.55;;;2.20;;
45490;SDS011;31237;45.586;13.782;2024-02-26T00:34:03;5.20;;;2.05;;
45490;SDS011;31237;45.586;13.782;2024-02-26T00:36:28;7.03;;;2.20;;
45490;SDS011;31237;45.586;13.782;2024-02-26T00:38:54;6.45;;;2.15;;
45490;SDS011;31237;45.586;13.782;2024-02-26T00:41:20;7.93;;;2.40;;
45490;SDS011;31237;45.586;13.782;2024-02-26T00:43:46;3.05;;;1.80;;
45490;SDS011;31237;45.586;13.782;2024-02-26T00:46:12;7.03;;;2.35;;
45490;SDS011;31237;45.586;13.782;2024-02-26T00:48:38;7.93;;;2.75;;
45490;SDS011;31237;45.586;13.782;2024-02-26T00:51:04;4.90;;;2.10;;
45490;SDS011;31237;45.586;13.782;2024-02-26T00:53:33;5.78;;;2.10;;
45490;SDS011;31237;45.586;13.782;2024-02-26T00:55:59;5.57;;;2.10;;
45490;SDS011;31237;45.586;13.782;2024-02-26T00:58:25;8.95;;;2.20;;
45490;SDS011;31237;45.586;13.782;2024-02-26T01:00:51;5.60;;;2.08;;
45490;SDS011;31237;45.586;13.782;2024-02-26T01:03:17;4.90;;;2.45;;
45490;SDS011;31237;45.586;13.782;2024-02-26T01:05:43;5.18;;;2.03;;
45490;SDS011;31237;45.586;13.782;2024-02-26T01:08:10;9.45;;;2.17;;
45490;SDS011;31237;45.586;13.782;2024-02-26T01:10:36;3.83;;;1.90;;
45490;SDS011;31237;45.586;13.782;2024-02-26T01:13:01;6.45;;;2.30;;
45490;SDS011;31237;45.586;13.782;2024-02-26T01:15:30;4.75;;;1.90;;
45490;SDS011;31237;45.586;13.782;2024-02-26T01:17:55;3.00;;;1.90;;
45490;SDS011;31237;45.586;13.782;2024-02-26T01:20:21;5.90;;;2.47;;
45490;SDS011;31237;45.586;13.782;2024-02-26T01:22:47;7.63;;;2.33;;
45490;SDS011;31237;45.586;13.782;2024-02-26T01:25:14;6.72;;;2.20;;
45490;SDS011;31237;45.586;13.782;2024-02-26T01:27:40;8.38;;;2.50;;
45490;SDS011;31237;45.586;13.782;2024-02-26T01:30:08;6.55;;;2.20;;
45490;SDS011;31237;45.586;13.782;2024-02-26T01:32:34;8.85;;;2.33;;
45490;SDS011;31237;45.586;13.782;2024-02-26T01:35:01;8.52;;;2.50;;
45490;SDS011;31237;45.586;13.782;2024-02-26T01:37:28;5.65;;;2.00;;
45490;SDS011;31237;45.586;13.782;2024-02-26T01:39:57;8.07;;;2.30;;
45490;SDS011;31237;45.586;13.782;2024-02-26T01:42:22;6.93;;;1.90;;
45490;SDS011;31237;45.586;13.782;2024-02-26T01:44:48;4.00;;;2.05;;
45490;SDS011;31237;45.586;13.782;2024-02-26T01:47:14;4.47;;;1.80;;
45490;SDS011;31237;45.586;13.782;2024-02-26T01:49:40;4.22;;;1.77;;
45490;SDS011;31237;45.586;13.782;2024-02-26T01:52:06;4.47;;;1.63;;
45490;SDS011;31237;45.586;13.782;2024-02-26T01:54:37;7.47;;;2.30;;
45490;SDS011;31237;45.586;13.782;2024-02-26T01:57:04;8.25;;;2.25;;
45490;SDS011;31237;45.586;13.782;2024-02-26T01:59:31;3.97;;;2.17;;
45490;SDS011;31237;45.586;13.782;2024-02-26T02:01:58;7.43;;;2.17;;
45490;SDS011;31237;45.586;13.782;2024-02-26T02:04:26;7.70;;;2.00;;
45490;SDS011;31237;45.586;13.782;2024-02-26T02:06:52;4.13;;;2.00;;
45490;SDS011;31237;45.586;13.782;2024-02-26T02:09:19;2.97;;;1.80;;
45490;SDS011;31237;45.586;13.782;2024-02-26T02:11:45;7.88;;;1.90;;
45490;SDS011;31237;45.586;13.782;2024-02-26T02:14:13;4.05;;;1.98;;
45490;SDS011;31237;45.586;13.782;2024-02-26T02:16:39;3.75;;;1.80;;
45490;SDS011;31237;45.586;13.782;2024-02-26T02:19:05;2.70;;;2.05;;
45490;SDS011;31237;45.586;13.782;2024-02-26T02:21:31;5.70;;;1.92;;
45490;SDS011;31237;45.586;13.782;2024-02-26T02:23:56;4.68;;;2.10;;
45490;SDS011;31237;45.586;13.782;2024-02-26T02:26:22;4.50;;;1.98;;
45490;SDS011;31237;45.586;13.782;2024-02-26T02:28:48;8.05;;;1.92;;
45490;SDS011;31237;45.586;13.782;2024-02-26T02:31:14;3.22;;;1.98;;
45490;SDS011;31237;45.586;13.782;2024-02-26T02:33:41;7.15;;;2.38;;
45490;SDS011;31237;45.586;13.782;2024-02-26T02:36:07;3.25;;;1.95;;
45490;SDS011;31237;45.586;13.782;2024-02-26T02:38:37;4.18;;;1.73;;
45490;SDS011;31237;45.586;13.782;2024-02-26T02:41:03;6.80;;;2.03;;
45490;SDS011;31237;45.586;13.782;2024-02-26T02:43:30;8.07;;;1.85;;
45490;SDS011;31237;45.586;13.782;2024-02-26T02:45:55;4.55;;;1.80;;
45490;SDS011;31237;45.586;13.782;2024-02-26T02:48:21;4.05;;;1.83;;
45490;SDS011;31237;45.586;13.782;2024-02-26T02:50:47;4.22;;;1.70;;
45490;SDS011;31237;45.586;13.782;2024-02-26T02:53:13;3.30;;;1.92;;
45490;SDS011;31237;45.586;13.782;2024-02-26T02:55:38;8.02;;;1.90;;
45490;SDS011;31237;45.586;13.782;2024-02-26T02:58:04;3.03;;;1.60;;
45490;SDS011;31237;45.586;13.782;2024-02-26T03:00:30;4.20;;;1.70;;
45490;SDS011;31237;45.586;13.782;2024-02-26T03:02:55;3.45;;;1.75;;
45490;SDS011;31237;45.586;13.782;2024-02-26T03:05:21;4.90;;;2.28;;
45490;SDS011;31237;45.586;13.782;2024-02-26T03:07:47;4.38;;;1.83;;
45490;SDS011;31237;45.586;13.782;2024-02-26T03:10:13;4.72;;;2.00;;
45490;SDS011;31237;45.586;13.782;2024-02-26T03:12:39;3.97;;;1.98;;
45490;SDS011;31237;45.586;13.782;2024-02-26T03:15:04;7.18;;;1.65;;
45490;SDS011;31237;45.586;13.782;2024-02-26T03:17:30;5.70;;;1.90;;
45490;SDS011;31237;45.586;13.782;2024-02-26T03:19:56;6.45;;;1.95;;
45490;SDS011;31237;45.586;13.782;2024-02-26T03:22:22;2.65;;;1.58;;
45490;SDS011;31237;45.586;13.782;2024-02-26T03:24:48;3.97;;;1.90;;
45490;SDS011;31237;45.586;13.782;2024-02-26T03:27:13;7.72;;;1.90;;
45490;SDS011;31237;45.586;13.782;2024-02-26T03:29:40;7.65;;;2.00;;
45490;SDS011;31237;45.586;13.782;2024-02-26T03:32:06;6.57;;;1.75;;
45490;SDS011;31237;45.586;13.782;2024-02-26T03:34:32;3.80;;;2.15;;
45490;SDS011;31237;45.586;13.782;2024-02-26T03:36:59;4.32;;;1.83;;
45490;SDS011;31237;45.586;13.782;2024-02-26T03:39:25;4.47;;;2.00;;
45490;SDS011;31237;45.586;13.782;2024-02-26T03:41:51;7.93;;;1.88;;
45490;SDS011;31237;45.586;13.782;2024-02-26T03:44:17;3.13;;;1.85;;
45490;SDS011;31237;45.586;13.782;2024-02-26T03:46:43;4.60;;;1.92;;
45490;SDS011;31237;45.586;13.782;2024-02-26T03:49:09;4.47;;;1.52;;
45490;SDS011;31237;45.586;13.782;2024-02-26T03:51:34;3.75;;;1.77;;
45490;SDS011;31237;45.586;13.782;2024-02-26T03:54:00;7.45;;;2.10;;
45490;SDS011;31237;45.586;13.782;2024-02-26T03:56:26;3.33;;;1.95;;
45490;SDS011;31237;45.586;13.782;2024-02-26T03:58:53;5.60;;;1.90;;
45490;SDS011;31237;45.586;13.782;2024-02-26T04:01:19;3.85;;;1.90;;
45490;SDS011;31237;45.586;13.782;2024-02-26T04:03:44;9.13;;;2.03;;
45490;SDS011;31237;45.586;13.782;2024-02-26T04:06:10;4.90;;;1.80;;
45490;SDS011;31237;45.586;13.782;2024-02-26T04:08:39;8.57;;;1.83;;
45490;SDS011;31237;45.586;13.782;2024-02-26T04:11:05;3.28;;;1.83;;
45490;SDS011;31237;45.586;13.782;2024-02-26T04:13:33;5.38;;;2.00;;
45490;SDS011;31237;45.586;13.782;2024-02-26T04:15:59;5.03;;;1.63;;
45490;SDS011;31237;45.586;13.782;2024-02-26T04:18:28;3.72;;;1.63;;
45490;SDS011;31237;45.586;13.782;2024-02-26T04:20:54;5.80;;;2.08;;
45490;SDS011;31237;45.586;13.782;2024-02-26T04:23:20;3.75;;;1.63;;
45490;SDS011;31237;45.586;13.782;2024-02-26T04:25:46;4.30;;;1.88;;
45490;SDS011;31237;45.586;13.782;2024-02-26T04:28:12;3.97;;;1.50;;
45490;SDS011;31237;45.586;13.782;2024-02-26T04:30:37;4.28;;;1.50;;
45490;SDS011;31237;45.586;13.782;2024-02-26T04:33:03;4.72;;;2.92;;
45490;SDS011;31237;45.586;13.782;2024-02-26T04:35:30;23.95;;;15.07;;
45490;SDS011;31237;45.586;13.782;2024-02-26T04:37:56;23.45;;;14.05;;
45490;SDS011;31237;45.586;13.782;2024-02-26T04:40:22;38.88;;;27.10;;
45490;SDS011;31237;45.586;13.782;2024-02-26T04:42:49;32.95;;;21.52;;
45490;SDS011;31237;45.586;13.782;2024-02-26T04:45:15;20.17;;;13.98;;
45490;SDS011;31237;45.586;13.782;2024-02-26T04:47:41;32.78;;;20.98;;
45490;SDS011;31237;45.586;13.782;2024-02-26T04:50:07;22.05;;;15.05;;
45490;SDS011;31237;45.586;13.782;2024-02-26T04:52:33;9.85;;;7.00;;
45490;SDS011;31237;45.586;13.782;2024-02-26T04:54:58;8.55;;;6.05;;
45490;SDS011;31237;45.586;13.782;2024-02-26T04:57:25;8.32;;;4.70;;
45490;SDS011;31237;45.586;13.782;2024-02-26T04:59:51;5.93;;;3.50;;
45490;SDS011;31237;45.586;13.782;2024-02-26T05:02:17;13.10;;;7.70;;
45490;SDS011;31237;45.586;13.782;2024-02-26T05:04:43;9.60;;;5.43;;
45490;SDS011;31237;45.586;13.782;2024-02-26T05:07:08;10.07;;;4.95;;
45490;SDS011;31237;45.586;13.782;2024-02-26T05:09:35;5.65;;;3.50;;
45490;SDS011;31237;45.586;13.782;2024-02-26T05:12:00;4.88;;;2.75;;
45490;SDS011;31237;45.586;13.782;2024-02-26T05:14:26;3.80;;;2.60;;
45490;SDS011;31237;45.586;13.782;2024-02-26T05:16:52;5.90;;;2.10;;
45490;SDS011;31237;45.586;13.782;2024-02-26T05:19:18;3.80;;;1.92;;
45490;SDS011;31237;45.586;13.782;2024-02-26T05:21:44;4.00;;;1.90;;
45490;SDS011;31237;45.586;13.782;2024-02-26T05:24:09;4.88;;;1.63;;
45490;SDS011;31237;45.586;13.782;2024-02-26T05:26:35;4.93;;;1.60;;
45490;SDS011;31237;45.586;13.782;2024-02-26T05:29:01;3.42;;;1.90;;
45490;SDS011;31237;45.586;13.782;2024-02-26T05:31:27;5.70;;;2.10;;
45490;SDS011;31237;45.586;13.782;2024-02-26T05:33:54;8.75;;;2.70;;
45490;SDS011;31237;45.586;13.782;2024-02-26T05:36:20;3.42;;;1.80;;
45490;SDS011;31237;45.586;13.782;2024-02-26T05:38:47;5.35;;;1.80;;
45490;SDS011;31237;45.586;13.782;2024-02-26T05:41:14;5.40;;;1.70;;
45490;SDS011;31237;45.586;13.782;2024-02-26T05:43:40;5.45;;;1.50;;
45490;SDS011;31237;45.586;13.782;2024-02-26T05:46:06;5.30;;;1.75;;
45490;SDS011;31237;45.586;13.782;2024-02-26T05:48:32;6.10;;;2.30;;
45490;SDS011;31237;45.586;13.782;2024-02-26T05:50:58;8.82;;;5.13;;
45490;SDS011;31237;45.586;13.782;2024-02-26T05:53:24;7.28;;;3.15;;
45490;SDS011;31237;45.586;13.782;2024-02-26T05:55:49;5.47;;;3.50;;
45490;SDS011;31237;45.586;13.782;2024-02-26T05:58:15;3.88;;;2.53;;
45490;SDS011;31237;45.586;13.782;2024-02-26T06:00:41;3.33;;;1.92;;
45490;SDS011;31237;45.586;13.782;2024-02-26T06:03:06;5.13;;;2.17;;
45490;SDS011;31237;45.586;13.782;2024-02-26T06:05:32;4.05;;;2.40;;
45490;SDS011;31237;45.586;13.782;2024-02-26T06:07:58;5.55;;;3.30;;
45490;SDS011;31237;45.586;13.782;2024-02-26T06:10:23;4.60;;;2.92;;
45490;SDS011;31237;45.586;13.782;2024-02-26T06:12:49;4.43;;;2.50;;
45490;SDS011;31237;45.586;13.782;2024-02-26T06:15:15;4.03;;;2.28;;
45490;SDS011;31237;45.586;13.782;2024-02-26T06:17:41;4.00;;;2.10;;
45490;SDS011;31237;45.586;13.782;2024-02-26T06:20:07;3.13;;;1.85;;
45490;SDS011;31237;45.586;13.782;2024-02-26T06:22:37;4.38;;;1.90;;
45490;SDS011;31237;45.586;13.782;2024-02-26T06:25:04;4.43;;;1.92;;
45490;SDS011;31237;45.586;13.782;2024-02-26T06:27:30;2.05;;;1.40;;
45490;SDS011;31237;45.586;13.782;2024-02-26T06:29:56;4.65;;;1.85;;
45490;SDS011;31237;45.586;13.782;2024-02-26T06:32:22;5.30;;;2.08;;
45490;SDS011;31237;45.586;13.782;2024-02-26T06:34:48;5.40;;;2.40;;
45490;SDS011;31237;45.586;13.782;2024-02-26T06:37:14;4.43;;;1.98;;
45490;SDS011;31237;45.586;13.782;2024-02-26T06:39:40;3.85;;;1.70;;
45490;SDS011;31237;45.586;13.782;2024-02-26T06:42:06;4.05;;;1.90;;
45490;SDS011;31237;45.586;13.782;2024-02-26T06:44:32;3.08;;;1.60;;
45490;SDS011;31237;45.586;13.782;2024-02-26T06:47:00;2.67;;;1.50;;
45490;SDS011;31237;45.586;13.782;2024-02-26T06:49:26;8.30;;;1.70;;
45490;SDS011;31237;45.586;13.782;2024-02-26T06:51:52;3.60;;;1.50;;
45490;SDS011;31237;45.586;13.782;2024-02-26T06:54:18;5.38;;;1.60;;
45490;SDS011;31237;45.586;13.782;2024-02-26T06:56:44;3.42;;;1.70;;
45490;SDS011;31237;45.586;13.782;2024-02-26T06:59:10;2.65;;;1.60;;
45490;SDS011;31237;45.586;13.782;2024-02-26T07:01:35;2.88;;;1.50;;
45490;SDS011;31237;45.586;13.782;2024-02-26T07:04:01;4.85;;;1.33;;
45490;SDS011;31237;45.586;13.782;2024-02-26T07:06:27;1.90;;;1.30;;
45490;SDS011;31237;45.586;13.782;2024-02-26T07:08:53;3.33;;;1.40;;
45490;SDS011;31237;45.586;13.782;2024-02-26T07:11:19;4.72;;;1.65;;
45490;SDS011;31237;45.586;13.782;2024-02-26T07:13:45;5.18;;;1.50;;
45490;SDS011;31237;45.586;13.782;2024-02-26T07:16:11;2.80;;;1.40;;
45490;SDS011;31237;45.586;13.782;2024-02-26T07:18:38;2.75;;;1.42;;
45490;SDS011;31237;45.586;13.782;2024-02-26T07:21:04;4.40;;;1.40;;
45490;SDS011;31237;45.586;13.782;2024-02-26T07:23:30;2.53;;;1.60;;
45490;SDS011;31237;45.586;13.782;2024-02-26T07:25:57;2.28;;;1.42;;
45490;SDS011;31237;45.586;13.782;2024-02-26T07:28:23;5.43;;;2.15;;
45490;SDS011;31237;45.586;13.782;2024-02-26T07:30:49;3.53;;;1.50;;
45490;SDS011;31237;45.586;13.782;2024-02-26T07:33:15;4.32;;;1.42;;
45490;SDS011;31237;45.586;13.782;2024-02-26T07:35:41;2.83;;;1.60;;
45490;SDS011;31237;45.586;13.782;2024-02-26T07:38:07;5.15;;;1.50;;
45490;SDS011;31237;45.586;13.782;2024-02-26T07:40:32;4.38;;;1.50;;
45490;SDS011;31237;45.586;13.782;2024-02-26T07:42:58;4.63;;;1.60;;
45490;SDS011;31237;45.586;13.782;2024-02-26T07:45:24;3.90;;;1.50;;
45490;SDS011;31237;45.586;13.782;2024-02-26T07:47:50;5.72;;;1.70;;
45490;SDS011;31237;45.586;13.782;2024-02-26T07:50:17;1.75;;;1.27;;
45490;SDS011;31237;45.586;13.782;2024-02-26T07:52:43;6.03;;;1.60;;
45490;SDS011;31237;45.586;13.782;2024-02-26T07:55:09;2.70;;;1.45;;
45490;SDS011;31237;45.586;13.782;2024-02-26T07:57:35;5.32;;;1.50;;
45490;SDS011;31237;45.586;13.782;2024-02-26T08:00:01;2.60;;;1.60;;
45490;SDS011;31237;45.586;13.782;2024-02-26T08:02:28;3.00;;;1.52;;
45490;SDS011;31237;45.586;13.782;2024-02-26T08:04:54;2.75;;;1.50;;
45490;SDS011;31237;45.586;13.782;2024-02-26T08:07:20;2.83;;;1.50;;
45490;SDS011;31237;45.586;13.782;2024-02-26T08:09:46;2.40;;;1.65;;
45490;SDS011;31237;45.586;13.782;2024-02-26T08:12:12;4.30;;;1.70;;
45490;SDS011;31237;45.586;13.782;2024-02-26T08:14:38;2.42;;;1.40;;
45490;SDS011;31237;45.586;13.782;2024-02-26T08:17:04;2.88;;;1.70;;
45490;SDS011;31237;45.586;13.782;2024-02-26T08:19:30;3.38;;;1.60;;
45490;SDS011;31237;45.586;13.782;2024-02-26T08:21:56;2.92;;;1.48;;
45490;SDS011;31237;45.586;13.782;2024-02-26T08:24:22;2.30;;;1.42;;
45490;SDS011;31237;45.586;13.782;2024-02-26T08:26:48;1.77;;;1.33;;
45490;SDS011;31237;45.586;13.782;2024-02-26T08:29:14;4.47;;;1.58;;
45490;SDS011;31237;45.586;13.782;2024-02-26T08:31:39;3.28;;;1.50;;
45490;SDS011;31237;45.586;13.782;2024-02-26T08:34:06;2.63;;;1.45;;
45490;SDS011;31237;45.586;13.782;2024-02-26T08:36:32;2.30;;;1.50;;
45490;SDS011;31237;45.586;13.782;2024-02-26T08:38:58;4.07;;;1.77;;
45490;SDS011;31237;45.586;13.782;2024-02-26T08:41:24;4.15;;;1.98;;
45490;SDS011;31237;45.586;13.782;2024-02-26T08:43:50;4.82;;;2.50;;
45490;SDS011;31237;45.586;13.782;2024-02-26T08:46:16;3.65;;;1.88;;
45490;SDS011;31237;45.586;13.782;2024-02-26T08:48:42;4.32;;;2.00;;
45490;SDS011;31237;45.586;13.782;2024-02-26T08:51:08;2.40;;;1.48;;
45490;SDS011;31237;45.586;13.782;2024-02-26T08:53:34;3.40;;;1.90;;
45490;SDS011;31237;45.586;13.782;2024-02-26T08:56:00;5.75;;;2.60;;
45490;SDS011;31237;45.586;13.782;2024-02-26T08:58:27;5.38;;;2.50;;
45490;SDS011;31237;45.586;13.782;2024-02-26T09:00:53;6.63;;;2.90;;
45490;SDS011;31237;45.586;13.782;2024-02-26T09:03:19;3.50;;;1.90;;
45490;SDS011;31237;45.586;13.782;2024-02-26T09:05:45;2.67;;;1.52;;
45490;SDS011;31237;45.586;13.782;2024-02-26T09:08:11;4.78;;;1.95;;
45490;SDS011;31237;45.586;13.782;2024-02-26T09:10:37;6.75;;;2.83;;
45490;SDS011;31237;45.586;13.782;2024-02-26T09:13:03;5.13;;;3.10;;
45490;SDS011;31237;45.586;13.782;2024-02-26T09:15:29;9.25;;;3.90;;
45490;SDS011;31237;45.586;13.782;2024-02-26T09:17:55;4.25;;;2.10;;
45490;SDS011;31237;45.586;13.782;2024-02-26T09:20:21;4.28;;;2.58;;
45490;SDS011;31237;45.586;13.782;2024-02-26T09:22:48;7.30;;;2.65;;
45490;SDS011;31237;45.586;13.782;2024-02-26T09:25:14;4.25;;;2.40;;
45490;SDS011;31237;45.586;13.782;2024-02-26T09:27:41;4.50;;;2.00;;
45490;SDS011;31237;45.586;13.782;2024-02-26T09:30:10;5.40;;;3.00;;
45490;SDS011;31237;45.586;13.782;2024-02-26T09:32:37;6.18;;;3.42;;
45490;SDS011;31237;45.586;13.782;2024-02-26T09:35:03;9.68;;;5.97;;
45490;SDS011;31237;45.586;13.782;2024-02-26T09:37:29;4.43;;;2.03;;
45490;SDS011;31237;45.586;13.782;2024-02-26T09:39:55;6.20;;;2.80;;
45490;SDS011;31237;45.586;13.782;2024-02-26T09:42:20;6.25;;;3.58;;
45490;SDS011;31237;45.586;13.782;2024-02-26T09:44:51;4.78;;;1.92;;
45490;SDS011;31237;45.586;13.782;2024-02-26T09:47:23;3.38;;;1.75;;
45490;SDS011;31237;45.586;13.782;2024-02-26T09:49:52;3.28;;;1.90;;
45490;SDS011;31237;45.586;13.782;2024-02-26T09:52:19;3.95;;;2.20;;
45490;SDS011;31237;45.586;13.782;2024-02-26T09:54:49;4.40;;;1.98;;
45490;SDS011;31237;45.586;13.782;2024-02-26T09:57:15;5.90;;;2.15;;
45490;SDS011;31237;45.586;13.782;2024-02-26T09:59:42;3.65;;;2.00;;
45490;SDS011;31237;45.586;13.782;2024-02-26T10:02:11;3.97;;;1.80;;
45490;SDS011;31237;45.586;13.782;2024-02-26T10:04:41;4.38;;;2.03;;
45490;SDS011;31237;45.586;13.782;2024-02-26T10:07:11;2.92;;;1.73;;
45490;SDS011;31237;45.586;13.782;2024-02-26T10:09:38;3.15;;;1.98;;
45490;SDS011;31237;45.586;13.782;2024-02-26T10:12:05;5.25;;;1.83;;
45490;SDS011;31237;45.586;13.782;2024-02-26T10:14:32;5.45;;;2.00;;
45490;SDS011;31237;45.586;13.782;2024-02-26T10:16:58;3.20;;;1.70;;
45490;SDS011;31237;45.586;13.782;2024-02-26T10:19:26;4.90;;;2.13;;
45490;SDS011;31237;45.586;13.782;2024-02-26T10:21:57;4.28;;;2.30;;
45490;SDS011;31237;45.586;13.782;2024-02-26T10:24:24;7.03;;;2.03;;
45490;SDS011;31237;45.586;13.782;2024-02-26T10:26:50;4.63;;;2.20;;
45490;SDS011;31237;45.586;13.782;2024-02-26T10:29:20;6.60;;;2.58;;
45490;SDS011;31237;45.586;13.782;2024-02-26T10:31:47;5.28;;;2.25;;
45490;SDS011;31237;45.586;13.782;2024-02-26T10:34:14;3.55;;;2.17;;
45490;SDS011;31237;45.586;13.782;2024-02-26T10:36:41;3.60;;;1.95;;
45490;SDS011;31237;45.586;13.782;2024-02-26T10:39:07;3.30;;;1.80;;
45490;SDS011;31237;45.586;13.782;2024-02-26T10:41:33;4.30;;;2.72;;
45490;SDS011;31237;45.586;13.782;2024-02-26T10:43:59;3.97;;;2.00;;
45490;SDS011;31237;45.586;13.782;2024-02-26T10:46:25;6.03;;;2.00;;
45490;SDS011;31237;45.586;13.782;2024-02-26T10:48:52;3.63;;;1.73;;
45490;SDS011;31237;45.586;13.782;2024-02-26T10:51:20;5.45;;;2.25;;
45490;SDS011;31237;45.586;13.782;2024-02-26T10:53:57;3.42;;;1.75;;
45490;SDS011;31237;45.586;13.782;2024-02-26T10:56:27;2.92;;;1.52;;
45490;SDS011;31237;45.586;13.782;2024-02-26T10:58:55;3.97;;;1.80;;
45490;SDS011;31237;45.586;13.782;2024-02-26T11:01:21;3.67;;;1.95;;
45490;SDS011;31237;45.586;13.782;2024-02-26T11:03:51;5.95;;;2.20;;
45490;SDS011;31237;45.586;13.782;2024-02-26T11:06:21;4.88;;;1.80;;
45490;SDS011;31237;45.586;13.782;2024-02-26T11:08:50;4.25;;;1.85;;
45490;SDS011;31237;45.586;13.782;2024-02-26T11:11:16;5.57;;;1.67;;
45490;SDS011;31237;45.586;13.782;2024-02-26T11:13:46;4.95;;;1.90;;
45490;SDS011;31237;45.586;13.782;2024-02-26T11:16:18;5.85;;;1.95;;
45490;SDS011;31237;45.586;13.782;2024-02-26T11:18:47;6.72;;;1.90;;
45490;SDS011;31237;45.586;13.782;2024-02-26T11:21:16;2.70;;;1.50;;
45490;SDS011;31237;45.586;13.782;2024-02-26T11:23:45;4.03;;;1.60;;
45490;SDS011;31237;45.586;13.782;2024-02-26T11:26:11;4.28;;;1.60;;
45490;SDS011;31237;45.586;13.782;2024-02-26T11:28:41;2.67;;;1.60;;
45490;SDS011;31237;45.586;13.782;2024-02-26T11:31:07;3.38;;;1.90;;
45490;SDS011;31237;45.586;13.782;2024-02-26T11:33:34;21.23;;;9.88;;
45490;SDS011;31237;45.586;13.782;2024-02-26T11:36:12;8.45;;;4.93;;
45490;SDS011;31237;45.586;13.782;2024-02-26T11:38:39;5.50;;;2.50;;
45490;SDS011;31237;45.586;13.782;2024-02-26T11:41:05;6.32;;;3.90;;
45490;SDS011;31237;45.586;13.782;2024-02-26T11:46:29;2.92;;;1.80;;
45490;SDS011;31237;45.586;13.782;2024-02-26T11:49:03;3.55;;;1.90;;
45490;SDS011;31237;45.586;13.782;2024-02-26T11:51:56;3.17;;;1.63;;
45490;SDS011;31237;45.586;13.782;2024-02-26T11:54:44;3.25;;;1.60;;
45490;SDS011;31237;45.586;13.782;2024-02-26T12:05:15;2.90;;;1.60;;
45490;SDS011;31237;45.586;13.782;2024-02-26T12:07:48;2.40;;;1.42;;
45490;SDS011;31237;45.586;13.782;2024-02-26T12:10:23;3.83;;;1.65;;
45490;SDS011;31237;45.586;13.782;2024-02-26T12:13:10;2.45;;;1.50;;
45490;SDS011;31237;45.586;13.782;2024-02-26T12:15:54;5.00;;;2.10;;
45490;SDS011;31237;45.586;13.782;2024-02-26T12:18:22;3.83;;;1.80;;
45490;SDS011;31237;45.586;13.782;2024-02-26T12:20:58;3.67;;;1.80;;
45490;SDS011;31237;45.586;13.782;2024-02-26T12:23:26;4.50;;;1.90;;
45490;SDS011;31237;45.586;13.782;2024-02-26T12:25:52;5.38;;;1.80;;
45490;SDS011;31237;45.586;13.782;2024-02-26T12:28:18;5.03;;;2.17;;
45490;SDS011;31237;45.586;13.782;2024-02-26T12:30:43;4.68;;;2.05;;
45490;SDS011;31237;45.586;13.782;2024-02-26T12:33:09;3.70;;;1.65;;
45490;SDS011;31237;45.586;13.782;2024-02-26T12:35:35;4.63;;;2.05;;
45490;SDS011;31237;45.586;13.782;2024-02-26T12:38:01;3.45;;;1.83;;
45490;SDS011;31237;45.586;13.782;2024-02-26T12:40:29;4.15;;;1.90;;
45490;SDS011;31237;45.586;13.782;2024-02-26T12:42:55;4.07;;;2.03;;
45490;SDS011;31237;45.586;13.782;2024-02-26T12:45:21;2.97;;;1.58;;
45490;SDS011;31237;45.586;13.782;2024-02-26T12:47:47;3.30;;;2.00;;
45490;SDS011;31237;45.586;13.782;2024-02-26T12:50:14;3.08;;;1.67;;
45490;SDS011;31237;45.586;13.782;2024-02-26T12:52:41;3.38;;;1.77;;
45490;SDS011;31237;45.586;13.782;2024-02-26T12:55:10;4.53;;;1.85;;
45490;SDS011;31237;45.586;13.782;2024-02-26T12:57:46;4.07;;;1.60;;
45490;SDS011;31237;45.586;13.782;2024-02-26T13:00:15;3.40;;;1.88;;
45490;SDS011;31237;45.586;13.782;2024-02-26T13:02:43;3.25;;;1.60;;
45490;SDS011;31237;45.586;13.782;2024-02-26T13:05:10;3.25;;;2.08;;
45490;SDS011;31237;45.586;13.782;2024-02-26T13:07:45;4.47;;;1.63;;
45490;SDS011;31237;45.586;13.782;2024-02-26T13:10:16;3.92;;;1.50;;
45490;SDS011;31237;45.586;13.782;2024-02-26T13:12:46;3.78;;;1.88;;
45490;SDS011;31237;45.586;13.782;2024-02-26T13:15:16;5.57;;;1.75;;
45490;SDS011;31237;45.586;13.782;2024-02-26T13:17:44;4.13;;;2.13;;
45490;SDS011;31237;45.586;13.782;2024-02-26T13:20:10;3.03;;;1.98;;
45490;SDS011;31237;45.586;13.782;2024-02-26T13:22:37;2.78;;;1.60;;
45490;SDS011;31237;45.586;13.782;2024-02-26T13:25:03;3.47;;;1.70;;
45490;SDS011;31237;45.586;13.782;2024-02-26T13:27:29;4.20;;;1.70;;
45490;SDS011;31237;45.586;13.782;2024-02-26T13:30:28;2.50;;;1.60;;
45490;SDS011;31237;45.586;13.782;2024-02-26T13:32:47;3.83;;;1.70;;
45490;SDS011;31237;45.586;13.782;2024-02-26T13:35:13;3.47;;;1.90;;
45490;SDS011;31237;45.586;13.782;2024-02-26T13:37:39;5.28;;;1.90;;
45490;SDS011;31237;45.586;13.782;2024-02-26T13:40:06;4.53;;;2.10;;
45490;SDS011;31237;45.586;13.782;2024-02-26T13:42:33;5.00;;;1.70;;
45490;SDS011;31237;45.586;13.782;2024-02-26T13:44:59;5.68;;;2.10;;
45490;SDS011;31237;45.586;13.782;2024-02-26T13:47:25;3.38;;;1.80;;
45490;SDS011;31237;45.586;13.782;2024-02-26T13:49:51;4.72;;;2.05;;
45490;SDS011;31237;45.586;13.782;2024-02-26T13:52:17;4.50;;;2.00;;
45490;SDS011;31237;45.586;13.782;2024-02-26T13:54:45;5.40;;;2.80;;
45490;SDS011;31237;45.586;13.782;2024-02-26T13:57:11;8.68;;;3.78;;
45490;SDS011;31237;45.586;13.782;2024-02-26T13:59:37;4.07;;;2.58;;
45490;SDS011;31237;45.586;13.782;2024-02-26T14:02:06;4.65;;;2.80;;
45490;SDS011;31237;45.586;13.782;2024-02-26T14:04:32;4.50;;;2.33;;
45490;SDS011;31237;45.586;13.782;2024-02-26T14:06:58;5.80;;;2.53;;
45490;SDS011;31237;45.586;13.782;2024-02-26T14:09:24;5.97;;;2.38;;
45490;SDS011;31237;45.586;13.782;2024-02-26T14:11:49;5.55;;;2.55;;
45490;SDS011;31237;45.586;13.782;2024-02-26T14:14:15;7.85;;;3.22;;
45490;SDS011;31237;45.586;13.782;2024-02-26T14:16:41;6.10;;;3.15;;
45490;SDS011;31237;45.586;13.782;2024-02-26T14:19:07;6.07;;;2.67;;
45490;SDS011;31237;45.586;13.782;2024-02-26T14:21:32;7.22;;;2.60;;
45490;SDS011;31237;45.586;13.782;2024-02-26T14:23:58;5.32;;;2.40;;
45490;SDS011;31237;45.586;13.782;2024-02-26T14:26:24;7.38;;;3.00;;
45490;SDS011;31237;45.586;13.782;2024-02-26T14:28:50;5.50;;;2.83;;
45490;SDS011;31237;45.586;13.782;2024-02-26T14:31:19;6.45;;;3.08;;
45490;SDS011;31237;45.586;13.782;2024-02-26T14:33:45;5.05;;;1.98;;
45490;SDS011;31237;45.586;13.782;2024-02-26T14:36:11;4.90;;;1.80;;
45490;SDS011;31237;45.586;13.782;2024-02-26T14:38:37;4.25;;;2.15;;
45490;SDS011;31237;45.586;13.782;2024-02-26T14:41:04;3.65;;;2.05;;
45490;SDS011;31237;45.586;13.782;2024-02-26T14:43:31;4.90;;;2.47;;